VCP35W AYPY-WSSS
Flight info
| Callsign | VCP35W |
|---|---|
| Flight time | N/A |
| Altitude | 34000 |
| Route | PY A215 EMONA/N0449F360 A215 KEVOK M774 OBDOS T22 UGEBO UGEBO1A |
| Aircraft | A320/M-SDE3FGHIRWY/LB1 |
Departure
| Time | 2026-04-29 10:06 |
|---|---|
| Airport | Port Moresby Jacksons International Airport (AYPY) |
Arrival
| Time | N/A |
|---|---|
| Airport | Singapore Changi Airport (WSSS) |
| Time | Latitude | Longitude | Altitude | Speed | Heading |
|---|---|---|---|---|---|
| 2026-04-29 09:26 | -9.43821 | 147.21179 | 106 ft | 0 kts | 237° |
| 2026-04-29 09:57 | -9.43812 | 147.21193 | 105 ft | 4 kts | 241° |
| 2026-04-29 09:57 | -9.43801 | 147.21218 | 105 ft | 4 kts | 253° |
| 2026-04-29 09:58 | -9.43796 | 147.21244 | 105 ft | 4 kts | 275° |
| 2026-04-29 09:58 | -9.43798 | 147.21258 | 105 ft | 1 kts | 283° |
| 2026-04-29 09:58 | -9.43798 | 147.21259 | 105 ft | 0 kts | 283° |
| 2026-04-29 10:01 | -9.43798 | 147.21258 | 105 ft | 1 kts | 283° |
| 2026-04-29 10:01 | -9.43793 | 147.21250 | 105 ft | 2 kts | 308° |
| 2026-04-29 10:01 | -9.43770 | 147.21245 | 105 ft | 5 kts | 351° |
| 2026-04-29 10:01 | -9.43724 | 147.21244 | 104 ft | 9 kts | 18° |
| 2026-04-29 10:02 | -9.43681 | 147.21279 | 103 ft | 9 kts | 26° |
| 2026-04-29 10:02 | -9.43610 | 147.21252 | 102 ft | 14 kts | 329° |
| 2026-04-29 10:02 | -9.43512 | 147.21192 | 100 ft | 19 kts | 329° |
| 2026-04-29 10:02 | -9.43400 | 147.21122 | 98 ft | 19 kts | 328° |
| 2026-04-29 10:03 | -9.43290 | 147.21089 | 100 ft | 13 kts | 21° |
| 2026-04-29 10:03 | -9.43239 | 147.21157 | 101 ft | 12 kts | 58° |
| 2026-04-29 10:03 | -9.43201 | 147.21221 | 100 ft | 9 kts | 58° |
| 2026-04-29 10:03 | -9.43172 | 147.21270 | 99 ft | 7 kts | 58° |
| 2026-04-29 10:04 | -9.43149 | 147.21307 | 99 ft | 7 kts | 58° |
| 2026-04-29 10:04 | -9.43120 | 147.21355 | 100 ft | 7 kts | 58° |
| 2026-04-29 10:04 | -9.43104 | 147.21393 | 102 ft | 4 kts | 94° |
| 2026-04-29 10:04 | -9.43120 | 147.21410 | 102 ft | 4 kts | 143° |
| 2026-04-29 10:05 | -9.43247 | 147.21489 | 102 ft | 52 kts | 148° |
| 2026-04-29 10:05 | -9.43751 | 147.21800 | 109 ft | 114 kts | 149° |
| 2026-04-29 10:05 | -9.44576 | 147.22312 | 130 ft | 161 kts | 148° |
| 2026-04-29 10:05 | -9.45524 | 147.22887 | 727 ft | 158 kts | 148° |
| 2026-04-29 10:06 | -9.46466 | 147.23468 | 1345 ft | 159 kts | 147° |
| 2026-04-29 10:06 | -9.47417 | 147.24061 | 1914 ft | 164 kts | 147° |
| 2026-04-29 10:06 | -9.48455 | 147.24710 | 2110 ft | 187 kts | 147° |
| 2026-04-29 10:06 | -9.49651 | 147.25384 | 2318 ft | 209 kts | 160° |
| 2026-04-29 10:07 | -9.51140 | 147.25358 | 2584 ft | 229 kts | 200° |
| 2026-04-29 10:07 | -9.52467 | 147.24382 | 2834 ft | 253 kts | 231° |
| 2026-04-29 10:07 | -9.53219 | 147.22719 | 3212 ft | 270 kts | 260° |
| 2026-04-29 10:07 | -9.53106 | 147.20796 | 3800 ft | 279 kts | 288° |
| 2026-04-29 10:08 | -9.52359 | 147.18964 | 4481 ft | 284 kts | 295° |
| 2026-04-29 10:08 | -9.51510 | 147.17151 | 5235 ft | 285 kts | 296° |
| 2026-04-29 10:08 | -9.50647 | 147.15342 | 5973 ft | 286 kts | 296° |
| 2026-04-29 10:08 | -9.49752 | 147.13527 | 6664 ft | 289 kts | 297° |
| 2026-04-29 10:09 | -9.48869 | 147.11690 | 7320 ft | 292 kts | 288° |
| 2026-04-29 10:09 | -9.48509 | 147.09688 | 7939 ft | 295 kts | 276° |
| 2026-04-29 10:09 | -9.48283 | 147.07616 | 8554 ft | 297 kts | 276° |
| 2026-04-29 10:09 | -9.48059 | 147.05523 | 9164 ft | 300 kts | 276° |
| 2026-04-29 10:10 | -9.47825 | 147.03409 | 9753 ft | 303 kts | 276° |
| 2026-04-29 10:10 | -9.47577 | 147.01271 | 10203 ft | 313 kts | 277° |
| 2026-04-29 10:10 | -9.47305 | 146.99014 | 10329 ft | 332 kts | 277° |
| 2026-04-29 10:10 | -9.47009 | 146.96624 | 10460 ft | 351 kts | 277° |
| 2026-04-29 10:11 | -9.46697 | 146.94137 | 10823 ft | 360 kts | 277° |
| 2026-04-29 10:11 | -9.46382 | 146.91645 | 11341 ft | 363 kts | 277° |
| 2026-04-29 10:11 | -9.46060 | 146.89098 | 11914 ft | 366 kts | 278° |
| 2026-04-29 10:11 | -9.45736 | 146.86534 | 12477 ft | 368 kts | 278° |
| 2026-04-29 10:12 | -9.45411 | 146.83953 | 13037 ft | 370 kts | 278° |
| 2026-04-29 10:12 | -9.45086 | 146.81359 | 13586 ft | 372 kts | 278° |
| 2026-04-29 10:12 | -9.44759 | 146.78752 | 14115 ft | 374 kts | 278° |
| 2026-04-29 10:12 | -9.44426 | 146.76129 | 14639 ft | 376 kts | 278° |
| 2026-04-29 10:13 | -9.44091 | 146.73496 | 15148 ft | 378 kts | 278° |
| 2026-04-29 10:13 | -9.43761 | 146.70886 | 15634 ft | 380 kts | 278° |
| 2026-04-29 10:13 | -9.43427 | 146.68228 | 16121 ft | 382 kts | 278° |
| 2026-04-29 10:13 | -9.43092 | 146.65554 | 16595 ft | 384 kts | 278° |
| 2026-04-29 10:14 | -9.42754 | 146.62867 | 17063 ft | 386 kts | 278° |
| 2026-04-29 10:14 | -9.42415 | 146.60168 | 17520 ft | 387 kts | 278° |
| 2026-04-29 10:14 | -9.42072 | 146.57454 | 17974 ft | 389 kts | 278° |
| 2026-04-29 10:14 | -9.41726 | 146.54729 | 18421 ft | 391 kts | 278° |
| 2026-04-29 10:15 | -9.41378 | 146.51988 | 18825 ft | 394 kts | 278° |
| 2026-04-29 10:15 | -9.41027 | 146.49227 | 19216 ft | 397 kts | 277° |
| 2026-04-29 10:15 | -9.40678 | 146.46480 | 19596 ft | 400 kts | 277° |
| 2026-04-29 10:15 | -9.40323 | 146.43682 | 19995 ft | 402 kts | 277° |
| 2026-04-29 10:16 | -9.39965 | 146.40862 | 20370 ft | 405 kts | 277° |
| 2026-04-29 10:16 | -9.39725 | 146.38985 | 20616 ft | 407 kts | 277° |
| 2026-04-29 10:16 | -9.39238 | 146.35165 | 21092 ft | 411 kts | 277° |
| 2026-04-29 10:16 | -9.38874 | 146.32285 | 21433 ft | 413 kts | 277° |
| 2026-04-29 10:17 | -9.38508 | 146.29387 | 21774 ft | 416 kts | 277° |
| 2026-04-29 10:17 | -9.38141 | 146.26475 | 22094 ft | 419 kts | 277° |
| 2026-04-29 10:17 | -9.37769 | 146.23542 | 22411 ft | 421 kts | 277° |
| 2026-04-29 10:17 | -9.37399 | 146.20630 | 22708 ft | 424 kts | 277° |
| 2026-04-29 10:18 | -9.37020 | 146.17664 | 22996 ft | 426 kts | 277° |
| 2026-04-29 10:18 | -9.36638 | 146.14680 | 23280 ft | 429 kts | 277° |
| 2026-04-29 10:18 | -9.36252 | 146.11680 | 23562 ft | 431 kts | 277° |
| 2026-04-29 10:18 | -9.35863 | 146.08666 | 23828 ft | 433 kts | 276° |
| 2026-04-29 10:19 | -9.35473 | 146.05638 | 24090 ft | 435 kts | 276° |
| 2026-04-29 10:19 | -9.35083 | 146.02592 | 24350 ft | 437 kts | 276° |
| 2026-04-29 10:19 | -9.34694 | 145.99532 | 24620 ft | 439 kts | 276° |
| 2026-04-29 10:19 | -9.34304 | 145.96468 | 24884 ft | 440 kts | 276° |
| 2026-04-29 10:20 | -9.33910 | 145.93392 | 25144 ft | 441 kts | 276° |
| 2026-04-29 10:20 | -9.33518 | 145.90350 | 25395 ft | 442 kts | 276° |
| 2026-04-29 10:20 | -9.33119 | 145.87258 | 25636 ft | 444 kts | 276° |
| 2026-04-29 10:20 | -9.32745 | 145.84152 | 25878 ft | 445 kts | 275° |
| 2026-04-29 10:21 | -9.32431 | 145.81033 | 26114 ft | 446 kts | 274° |
| 2026-04-29 10:21 | -9.32157 | 145.77903 | 26343 ft | 447 kts | 274° |
| 2026-04-29 10:21 | -9.31895 | 145.74762 | 26566 ft | 448 kts | 274° |
| 2026-04-29 10:21 | -9.31634 | 145.71618 | 26780 ft | 449 kts | 274° |
| 2026-04-29 10:22 | -9.31363 | 145.68505 | 26988 ft | 450 kts | 274° |
| 2026-04-29 10:22 | -9.31075 | 145.65348 | 27203 ft | 451 kts | 274° |
| 2026-04-29 10:22 | -9.30777 | 145.62186 | 27411 ft | 452 kts | 275° |
| 2026-04-29 10:22 | -9.30470 | 145.59013 | 27602 ft | 453 kts | 275° |
| 2026-04-29 10:23 | -9.30167 | 145.55838 | 27781 ft | 454 kts | 275° |
| 2026-04-29 10:23 | -9.29867 | 145.52653 | 27982 ft | 455 kts | 274° |
| 2026-04-29 10:23 | -9.29571 | 145.49462 | 28167 ft | 456 kts | 274° |
| 2026-04-29 10:23 | -9.29275 | 145.46264 | 28344 ft | 457 kts | 274° |
| 2026-04-29 10:24 | -9.28977 | 145.43057 | 28507 ft | 458 kts | 274° |
| 2026-04-29 10:24 | -9.28678 | 145.39890 | 28693 ft | 459 kts | 275° |
| 2026-04-29 10:24 | -9.28369 | 145.36630 | 28860 ft | 459 kts | 275° |
| 2026-04-29 10:24 | -9.28066 | 145.33452 | 29015 ft | 460 kts | 275° |
| 2026-04-29 10:25 | -9.27757 | 145.30226 | 29165 ft | 461 kts | 275° |
| 2026-04-29 10:25 | -9.27451 | 145.26997 | 29323 ft | 461 kts | 275° |
| 2026-04-29 10:25 | -9.27147 | 145.23759 | 29459 ft | 462 kts | 275° |
| 2026-04-29 10:25 | -9.26846 | 145.20515 | 29589 ft | 463 kts | 275° |
| 2026-04-29 10:26 | -9.26541 | 145.17264 | 29734 ft | 464 kts | 275° |
| 2026-04-29 10:26 | -9.26231 | 145.14015 | 29950 ft | 463 kts | 275° |
| 2026-04-29 10:26 | -9.25924 | 145.10820 | 30150 ft | 462 kts | 275° |
| 2026-04-29 10:26 | -9.25616 | 145.07589 | 30348 ft | 461 kts | 275° |
| 2026-04-29 10:27 | -9.25002 | 145.01141 | 30745 ft | 460 kts | 275° |
| 2026-04-29 10:27 | -9.24692 | 144.97920 | 30948 ft | 459 kts | 275° |
| 2026-04-29 10:27 | -9.24385 | 144.94710 | 31150 ft | 458 kts | 275° |
| 2026-04-29 10:28 | -9.24080 | 144.91504 | 31339 ft | 457 kts | 275° |
| 2026-04-29 10:28 | -9.23774 | 144.88306 | 31538 ft | 456 kts | 275° |
| 2026-04-29 10:28 | -9.23467 | 144.85117 | 31716 ft | 455 kts | 275° |
| 2026-04-29 10:28 | -9.23161 | 144.81934 | 31888 ft | 454 kts | 275° |
| 2026-04-29 10:29 | -9.22866 | 144.78802 | 32037 ft | 453 kts | 275° |
| 2026-04-29 10:29 | -9.22564 | 144.75628 | 32181 ft | 453 kts | 275° |
| 2026-04-29 10:29 | -9.22257 | 144.72452 | 32351 ft | 453 kts | 275° |
| 2026-04-29 10:29 | -9.21951 | 144.69280 | 32539 ft | 453 kts | 275° |
| 2026-04-29 10:30 | -9.21648 | 144.66116 | 32743 ft | 451 kts | 275° |
| 2026-04-29 10:30 | -9.21345 | 144.62955 | 32930 ft | 451 kts | 275° |
| 2026-04-29 10:30 | -9.21039 | 144.59802 | 33105 ft | 450 kts | 276° |
| 2026-04-29 10:30 | -9.20733 | 144.56652 | 33296 ft | 449 kts | 276° |
| 2026-04-29 10:31 | -9.20431 | 144.53551 | 33486 ft | 448 kts | 276° |
| 2026-04-29 10:31 | -9.20126 | 144.50414 | 33666 ft | 448 kts | 276° |
| 2026-04-29 10:31 | -9.19824 | 144.47280 | 33842 ft | 447 kts | 276° |
| 2026-04-29 10:31 | -9.19527 | 144.44149 | 33943 ft | 445 kts | 276° |
| 2026-04-29 10:32 | -9.19231 | 144.41038 | 33963 ft | 443 kts | 276° |
| 2026-04-29 10:32 | -9.18626 | 144.34840 | 33960 ft | 442 kts | 276° |
| 2026-04-29 10:33 | -9.18016 | 144.28696 | 33961 ft | 442 kts | 276° |
| 2026-04-29 10:33 | -9.17420 | 144.22504 | 33960 ft | 442 kts | 276° |
| 2026-04-29 10:34 | -9.16822 | 144.16318 | 33961 ft | 442 kts | 276° |
| 2026-04-29 10:34 | -9.16216 | 144.10135 | 33960 ft | 442 kts | 276° |
| 2026-04-29 10:35 | -9.15623 | 144.03992 | 33957 ft | 441 kts | 276° |
| 2026-04-29 10:35 | -9.15020 | 143.97813 | 33951 ft | 441 kts | 276° |
| 2026-04-29 10:36 | -9.14400 | 143.91633 | 33946 ft | 441 kts | 276° |
| 2026-04-29 10:36 | -9.13788 | 143.85452 | 33945 ft | 442 kts | 276° |
| 2026-04-29 10:37 | -9.13188 | 143.79304 | 33945 ft | 442 kts | 276° |
| 2026-04-29 10:37 | -9.12574 | 143.73115 | 33950 ft | 442 kts | 276° |
| 2026-04-29 10:38 | -9.11962 | 143.66919 | 33948 ft | 443 kts | 276° |
| 2026-04-29 10:38 | -9.11352 | 143.60719 | 33958 ft | 443 kts | 276° |
| 2026-04-29 10:39 | -9.10737 | 143.54564 | 33950 ft | 442 kts | 276° |
| 2026-04-29 10:39 | -9.10121 | 143.48367 | 33949 ft | 442 kts | 276° |
| 2026-04-29 10:40 | -9.09498 | 143.42176 | 33952 ft | 443 kts | 276° |
| 2026-04-29 10:40 | -9.08881 | 143.35979 | 33945 ft | 443 kts | 276° |
| 2026-04-29 10:41 | -9.08265 | 143.29776 | 33946 ft | 443 kts | 276° |
| 2026-04-29 10:41 | -9.07644 | 143.23615 | 33947 ft | 443 kts | 276° |
| 2026-04-29 10:42 | -9.06615 | 143.17480 | 33944 ft | 442 kts | 282° |
| 2026-04-29 10:42 | -9.05326 | 143.11394 | 33947 ft | 442 kts | 282° |
| 2026-04-29 10:43 | -9.04048 | 143.05350 | 33936 ft | 442 kts | 282° |
| 2026-04-29 10:43 | -9.02769 | 142.99257 | 33933 ft | 443 kts | 282° |
| 2026-04-29 10:44 | -9.01482 | 142.93163 | 33934 ft | 443 kts | 282° |
| 2026-04-29 10:44 | -9.00180 | 142.87061 | 33936 ft | 444 kts | 282° |
| 2026-04-29 10:45 | -8.98884 | 142.80953 | 33936 ft | 444 kts | 282° |
| 2026-04-29 10:45 | -8.97594 | 142.74888 | 33939 ft | 444 kts | 282° |
| 2026-04-29 10:46 | -8.96294 | 142.68788 | 33938 ft | 444 kts | 282° |
| 2026-04-29 10:46 | -8.95000 | 142.62683 | 33938 ft | 444 kts | 282° |
| 2026-04-29 10:47 | -8.93703 | 142.56577 | 33937 ft | 444 kts | 282° |
| 2026-04-29 10:47 | -8.92409 | 142.50512 | 33936 ft | 444 kts | 282° |
| 2026-04-29 10:48 | -8.91100 | 142.44399 | 33937 ft | 445 kts | 283° |
| 2026-04-29 10:48 | -8.89796 | 142.38283 | 33938 ft | 445 kts | 282° |
| 2026-04-29 10:49 | -8.88500 | 142.32165 | 33938 ft | 445 kts | 282° |
| 2026-04-29 10:49 | -8.87202 | 142.26093 | 33948 ft | 445 kts | 283° |
| 2026-04-29 10:50 | -8.85892 | 142.19980 | 33952 ft | 445 kts | 283° |
| 2026-04-29 10:50 | -8.84581 | 142.13865 | 33950 ft | 445 kts | 283° |
| 2026-04-29 10:51 | -8.83265 | 142.07749 | 33959 ft | 445 kts | 283° |
| 2026-04-29 10:51 | -8.81958 | 142.01675 | 33953 ft | 445 kts | 283° |
| 2026-04-29 10:52 | -8.80649 | 141.95557 | 33954 ft | 446 kts | 283° |
| 2026-04-29 10:52 | -8.79340 | 141.89433 | 33957 ft | 446 kts | 283° |
| 2026-04-29 10:53 | -8.78026 | 141.83303 | 33956 ft | 446 kts | 283° |
| 2026-04-29 10:53 | -8.76708 | 141.77219 | 33959 ft | 446 kts | 283° |
| 2026-04-29 10:54 | -8.75385 | 141.71099 | 33962 ft | 446 kts | 283° |
| 2026-04-29 10:54 | -8.74064 | 141.64981 | 33954 ft | 445 kts | 283° |
| 2026-04-29 10:55 | -8.72746 | 141.58858 | 33954 ft | 446 kts | 283° |
| 2026-04-29 10:55 | -8.71438 | 141.52774 | 33959 ft | 446 kts | 283° |
| 2026-04-29 10:56 | -8.70115 | 141.46647 | 33959 ft | 446 kts | 283° |
| 2026-04-29 10:56 | -8.68787 | 141.40522 | 33957 ft | 446 kts | 283° |
| 2026-04-29 10:57 | -8.67462 | 141.34396 | 33956 ft | 446 kts | 283° |
| 2026-04-29 10:57 | -8.66148 | 141.28316 | 33959 ft | 446 kts | 283° |
| 2026-04-29 10:58 | -8.64819 | 141.22199 | 33961 ft | 446 kts | 283° |
| 2026-04-29 10:58 | -8.63490 | 141.16079 | 33960 ft | 446 kts | 283° |
| 2026-04-29 10:59 | -8.62159 | 141.09956 | 33958 ft | 446 kts | 283° |
| 2026-04-29 10:59 | -8.60844 | 141.03876 | 33964 ft | 446 kts | 283° |
| 2026-04-29 11:00 | -8.59585 | 140.97744 | 33964 ft | 445 kts | 280° |
| 2026-04-29 11:00 | -8.58725 | 140.91548 | 33963 ft | 446 kts | 277° |
| 2026-04-29 11:01 | -8.58030 | 140.85327 | 33964 ft | 445 kts | 277° |
| 2026-04-29 11:01 | -8.57277 | 140.79159 | 33962 ft | 445 kts | 278° |
| 2026-04-29 11:02 | -8.56449 | 140.72964 | 33962 ft | 445 kts | 278° |
| 2026-04-29 11:02 | -8.55600 | 140.66771 | 33959 ft | 445 kts | 278° |
| 2026-04-29 11:03 | -8.54761 | 140.60577 | 33958 ft | 445 kts | 278° |
| 2026-04-29 11:03 | -8.53946 | 140.54421 | 33957 ft | 445 kts | 278° |
| 2026-04-29 11:04 | -8.53131 | 140.48222 | 33957 ft | 445 kts | 278° |
| 2026-04-29 11:04 | -8.52230 | 140.42035 | 33957 ft | 445 kts | 284° |
| 2026-04-29 11:05 | -8.50246 | 140.36137 | 33960 ft | 444 kts | 290° |
| 2026-04-29 11:05 | -8.48116 | 140.30283 | 33949 ft | 444 kts | 290° |
| 2026-04-29 11:06 | -8.46009 | 140.24471 | 33947 ft | 444 kts | 290° |
| 2026-04-29 11:06 | -8.43885 | 140.18615 | 33952 ft | 444 kts | 290° |
| 2026-04-29 11:07 | -8.41760 | 140.12761 | 33947 ft | 444 kts | 290° |
| 2026-04-29 11:07 | -8.39638 | 140.06910 | 33954 ft | 444 kts | 290° |
| 2026-04-29 11:08 | -8.37526 | 140.01096 | 33951 ft | 444 kts | 290° |
| 2026-04-29 11:08 | -8.35401 | 139.95237 | 33951 ft | 444 kts | 290° |
| 2026-04-29 11:09 | -8.33271 | 139.89382 | 33952 ft | 444 kts | 290° |
| 2026-04-29 11:09 | -8.31135 | 139.83528 | 33953 ft | 444 kts | 290° |
| 2026-04-29 11:10 | -8.29365 | 139.78664 | 33950 ft | 444 kts | 290° |
| 2026-04-29 11:10 | -8.26893 | 139.71856 | 33953 ft | 445 kts | 290° |
| 2026-04-29 11:11 | -8.24759 | 139.65998 | 33951 ft | 444 kts | 290° |
| 2026-04-29 11:11 | -8.22984 | 139.61127 | 33950 ft | 445 kts | 290° |
| 2026-04-29 11:12 | -8.20850 | 139.55267 | 33952 ft | 445 kts | 290° |
| 2026-04-29 11:12 | -8.18361 | 139.48451 | 33953 ft | 445 kts | 290° |
| 2026-04-29 11:13 | -8.16583 | 139.43580 | 33954 ft | 445 kts | 290° |
| 2026-04-29 11:13 | -8.14440 | 139.37717 | 33960 ft | 445 kts | 290° |
| 2026-04-29 11:14 | -8.12298 | 139.31855 | 33954 ft | 445 kts | 290° |
| 2026-04-29 11:14 | -8.10153 | 139.25989 | 33955 ft | 445 kts | 290° |
| 2026-04-29 11:15 | -8.08011 | 139.20121 | 33947 ft | 445 kts | 290° |
| 2026-04-29 11:15 | -8.05865 | 139.14252 | 33948 ft | 446 kts | 290° |
| 2026-04-29 11:16 | -8.03731 | 139.08419 | 33951 ft | 446 kts | 290° |
| 2026-04-29 11:16 | -8.01583 | 139.02543 | 33948 ft | 447 kts | 290° |
| 2026-04-29 11:17 | -7.99432 | 138.96659 | 33951 ft | 447 kts | 290° |
| 2026-04-29 11:17 | -7.97267 | 138.90772 | 33934 ft | 448 kts | 291° |
| 2026-04-29 11:18 | -7.95113 | 138.84916 | 33932 ft | 449 kts | 290° |
| 2026-04-29 11:18 | -7.92954 | 138.79005 | 33932 ft | 449 kts | 290° |
| 2026-04-29 11:19 | -7.90788 | 138.73086 | 33933 ft | 450 kts | 290° |
| 2026-04-29 11:19 | -7.88601 | 138.67165 | 33937 ft | 451 kts | 291° |
| 2026-04-29 11:20 | -7.86425 | 138.61282 | 33956 ft | 451 kts | 290° |
| 2026-04-29 11:20 | -7.84247 | 138.55349 | 33956 ft | 451 kts | 290° |
| 2026-04-29 11:21 | -7.82061 | 138.49415 | 33958 ft | 451 kts | 290° |
| 2026-04-29 11:21 | -7.79882 | 138.43481 | 33960 ft | 451 kts | 290° |
| 2026-04-29 11:22 | -7.77705 | 138.37545 | 33962 ft | 451 kts | 290° |
| 2026-04-29 11:22 | -7.75530 | 138.31653 | 33959 ft | 452 kts | 290° |
| 2026-04-29 11:23 | -7.73335 | 138.25715 | 33957 ft | 452 kts | 290° |
| 2026-04-29 11:23 | -7.71150 | 138.19775 | 33962 ft | 452 kts | 290° |
| 2026-04-29 11:24 | -7.68960 | 138.13832 | 33961 ft | 452 kts | 290° |
| 2026-04-29 11:24 | -7.66774 | 138.07931 | 33963 ft | 453 kts | 290° |
| 2026-04-29 11:25 | -7.64575 | 138.01984 | 33958 ft | 453 kts | 290° |
| 2026-04-29 11:25 | -7.62376 | 137.96040 | 33963 ft | 453 kts | 290° |
| 2026-04-29 11:26 | -7.59090 | 137.87115 | 33964 ft | 453 kts | 290° |
| 2026-04-29 11:26 | -7.56903 | 137.81207 | 33969 ft | 453 kts | 291° |
| 2026-04-29 11:27 | -7.54696 | 137.75254 | 33969 ft | 453 kts | 291° |
| 2026-04-29 11:27 | -7.52493 | 137.69305 | 33970 ft | 453 kts | 291° |
| 2026-04-29 11:28 | -7.50289 | 137.63358 | 33968 ft | 453 kts | 291° |
| 2026-04-29 11:28 | -7.48102 | 137.57451 | 33973 ft | 453 kts | 291° |
| 2026-04-29 11:29 | -7.45898 | 137.51505 | 33966 ft | 453 kts | 291° |
| 2026-04-29 11:29 | -7.43691 | 137.45555 | 33969 ft | 453 kts | 291° |
| 2026-04-29 11:30 | -7.41485 | 137.39610 | 33966 ft | 453 kts | 291° |
| 2026-04-29 11:30 | -7.39276 | 137.33665 | 33965 ft | 453 kts | 291° |
| 2026-04-29 11:31 | -7.37076 | 137.27761 | 33967 ft | 453 kts | 291° |
| 2026-04-29 11:31 | -7.34869 | 137.21814 | 33968 ft | 453 kts | 291° |
| 2026-04-29 11:32 | -7.32667 | 137.15858 | 33963 ft | 454 kts | 291° |
| 2026-04-29 11:32 | -7.30460 | 137.09906 | 33965 ft | 454 kts | 291° |
| 2026-04-29 11:33 | -7.28248 | 137.03994 | 33966 ft | 454 kts | 291° |
| 2026-04-29 11:33 | -7.26021 | 136.98039 | 33972 ft | 454 kts | 291° |
| 2026-04-29 11:34 | -7.23810 | 136.92088 | 33968 ft | 454 kts | 291° |
| 2026-04-29 11:34 | -7.21598 | 136.86134 | 33967 ft | 454 kts | 291° |
| 2026-04-29 11:35 | -7.19397 | 136.80222 | 33968 ft | 454 kts | 291° |
| 2026-04-29 11:35 | -7.17167 | 136.74273 | 33966 ft | 454 kts | 291° |
| 2026-04-29 11:36 | -7.14944 | 136.68327 | 33970 ft | 453 kts | 291° |
| 2026-04-29 11:36 | -7.12730 | 136.62377 | 33969 ft | 454 kts | 291° |
| 2026-04-29 11:37 | -7.10532 | 136.56466 | 33966 ft | 454 kts | 291° |
| 2026-04-29 11:37 | -7.08312 | 136.50515 | 33963 ft | 454 kts | 291° |
| 2026-04-29 11:38 | -7.06080 | 136.44562 | 33964 ft | 454 kts | 291° |
| 2026-04-29 11:38 | -7.03844 | 136.38614 | 33962 ft | 455 kts | 291° |
| 2026-04-29 11:39 | -7.01632 | 136.32695 | 33963 ft | 455 kts | 291° |
| 2026-04-29 11:39 | -6.99407 | 136.26738 | 33968 ft | 455 kts | 291° |
| 2026-04-29 11:40 | -6.97176 | 136.20780 | 33970 ft | 455 kts | 291° |
| 2026-04-29 11:40 | -6.94945 | 136.14818 | 33963 ft | 455 kts | 291° |
| 2026-04-29 11:41 | -6.92728 | 136.08898 | 33963 ft | 455 kts | 292° |
| 2026-04-29 11:41 | -6.90488 | 136.02935 | 33966 ft | 456 kts | 292° |
| 2026-04-29 11:42 | -6.88253 | 135.96974 | 33964 ft | 456 kts | 292° |
| 2026-04-29 11:42 | -6.86018 | 135.91006 | 33965 ft | 456 kts | 292° |
| 2026-04-29 11:43 | -6.83788 | 135.85078 | 33962 ft | 456 kts | 292° |
| 2026-04-29 11:43 | -6.81543 | 135.79103 | 33964 ft | 456 kts | 292° |
| 2026-04-29 11:44 | -6.79299 | 135.73130 | 33964 ft | 456 kts | 292° |
| 2026-04-29 11:44 | -6.77054 | 135.67156 | 33966 ft | 456 kts | 292° |
| 2026-04-29 11:45 | -6.74830 | 135.61219 | 33971 ft | 457 kts | 292° |
| 2026-04-29 11:45 | -6.72576 | 135.55247 | 33965 ft | 457 kts | 292° |
| 2026-04-29 11:46 | -6.70324 | 135.49273 | 33967 ft | 457 kts | 292° |
| 2026-04-29 11:46 | -6.68075 | 135.43298 | 33957 ft | 457 kts | 292° |
| 2026-04-29 11:47 | -6.65844 | 135.37362 | 33962 ft | 456 kts | 292° |
| 2026-04-29 11:47 | -6.63594 | 135.31395 | 33954 ft | 456 kts | 292° |
| 2026-04-29 11:48 | -6.61344 | 135.25426 | 33953 ft | 457 kts | 292° |
| 2026-04-29 11:48 | -6.59093 | 135.19458 | 33955 ft | 456 kts | 292° |
| 2026-04-29 11:49 | -6.56838 | 135.13490 | 33949 ft | 457 kts | 292° |
| 2026-04-29 11:49 | -6.54601 | 135.07562 | 33961 ft | 457 kts | 292° |
| 2026-04-29 11:50 | -6.52347 | 135.01591 | 33953 ft | 457 kts | 292° |
| 2026-04-29 11:50 | -6.50087 | 134.95624 | 33955 ft | 457 kts | 292° |
| 2026-04-29 11:51 | -6.47833 | 134.89658 | 33960 ft | 456 kts | 292° |
| 2026-04-29 11:51 | -6.45597 | 134.83731 | 33956 ft | 457 kts | 292° |
| 2026-04-29 11:52 | -6.43342 | 134.77761 | 33956 ft | 457 kts | 292° |
| 2026-04-29 11:52 | -6.41084 | 134.71790 | 33957 ft | 457 kts | 292° |
| 2026-04-29 11:53 | -6.38823 | 134.65823 | 33958 ft | 457 kts | 292° |
| 2026-04-29 11:53 | -6.36581 | 134.59897 | 33955 ft | 457 kts | 292° |
| 2026-04-29 11:54 | -6.34321 | 134.53931 | 33954 ft | 457 kts | 292° |
| 2026-04-29 11:54 | -6.32060 | 134.47959 | 33956 ft | 457 kts | 292° |
| 2026-04-29 11:55 | -6.29799 | 134.41987 | 33951 ft | 457 kts | 292° |
| 2026-04-29 11:55 | -6.27535 | 134.36018 | 33954 ft | 457 kts | 292° |
| 2026-04-29 11:56 | -6.25290 | 134.30087 | 33951 ft | 458 kts | 292° |
| 2026-04-29 11:56 | -6.23021 | 134.24109 | 33954 ft | 458 kts | 292° |
| 2026-04-29 11:57 | -6.20746 | 134.18129 | 33961 ft | 458 kts | 292° |
| 2026-04-29 11:57 | -6.18467 | 134.12147 | 33964 ft | 458 kts | 292° |
| 2026-04-29 11:58 | -6.16208 | 134.06205 | 33965 ft | 458 kts | 292° |
| 2026-04-29 11:58 | -6.13939 | 134.00226 | 33962 ft | 457 kts | 292° |
| 2026-04-29 11:59 | -6.11676 | 133.94257 | 33956 ft | 457 kts | 292° |
| 2026-04-29 11:59 | -6.09405 | 133.88287 | 33953 ft | 458 kts | 292° |
| 2026-04-29 12:00 | -6.07144 | 133.82358 | 33958 ft | 458 kts | 292° |
| 2026-04-29 12:00 | -6.04865 | 133.76383 | 33961 ft | 458 kts | 292° |
| 2026-04-29 12:01 | -6.02588 | 133.70403 | 33962 ft | 458 kts | 292° |
| 2026-04-29 12:01 | -6.00314 | 133.64423 | 33963 ft | 458 kts | 292° |
| 2026-04-29 12:02 | -5.98038 | 133.58446 | 33957 ft | 458 kts | 292° |
| 2026-04-29 12:02 | -5.95775 | 133.52518 | 33954 ft | 457 kts | 292° |
| 2026-04-29 12:03 | -5.93501 | 133.46549 | 33948 ft | 457 kts | 292° |
| 2026-04-29 12:03 | -5.91231 | 133.40579 | 33944 ft | 458 kts | 292° |
| 2026-04-29 12:04 | -5.88950 | 133.34608 | 33955 ft | 458 kts | 292° |
| 2026-04-29 12:04 | -5.86682 | 133.28677 | 33947 ft | 458 kts | 292° |
| 2026-04-29 12:05 | -5.84398 | 133.22704 | 33935 ft | 459 kts | 292° |
| 2026-04-29 12:05 | -5.82111 | 133.16718 | 33936 ft | 459 kts | 292° |
| 2026-04-29 12:06 | -5.79819 | 133.10728 | 33936 ft | 460 kts | 292° |
| 2026-04-29 12:06 | -5.77534 | 133.04770 | 33940 ft | 461 kts | 292° |
| 2026-04-29 12:07 | -5.75242 | 132.98762 | 33953 ft | 461 kts | 292° |
| 2026-04-29 12:07 | -5.72955 | 132.92749 | 33946 ft | 461 kts | 292° |
| 2026-04-29 12:08 | -5.70651 | 132.86740 | 33945 ft | 461 kts | 292° |
| 2026-04-29 12:08 | -5.68348 | 132.80723 | 33947 ft | 462 kts | 292° |
| 2026-04-29 12:09 | -5.66060 | 132.74747 | 33945 ft | 462 kts | 290° |
| 2026-04-29 12:09 | -5.64868 | 132.68426 | 33938 ft | 464 kts | 272° |
| 2026-04-29 12:10 | -5.64651 | 132.61950 | 33937 ft | 464 kts | 273° |
| 2026-04-29 12:10 | -5.64385 | 132.55469 | 33938 ft | 465 kts | 273° |
| 2026-04-29 12:11 | -5.64122 | 132.48983 | 33951 ft | 465 kts | 273° |
| 2026-04-29 12:11 | -5.63868 | 132.42532 | 33944 ft | 466 kts | 273° |
| 2026-04-29 12:12 | -5.63624 | 132.36035 | 33948 ft | 466 kts | 273° |
| 2026-04-29 12:12 | -5.63380 | 132.29537 | 33948 ft | 465 kts | 273° |
| 2026-04-29 12:13 | -5.63126 | 132.23050 | 33944 ft | 465 kts | 273° |
| 2026-04-29 12:13 | -5.62873 | 132.16556 | 33941 ft | 465 kts | 273° |
| 2026-04-29 12:14 | -5.62618 | 132.10108 | 33945 ft | 465 kts | 273° |
| 2026-04-29 12:14 | -5.62365 | 132.03618 | 33943 ft | 465 kts | 273° |
| 2026-04-29 12:15 | -5.62108 | 131.97131 | 33940 ft | 465 kts | 273° |
| 2026-04-29 12:15 | -5.61847 | 131.90637 | 33937 ft | 466 kts | 273° |
| 2026-04-29 12:16 | -5.61592 | 131.84187 | 33934 ft | 466 kts | 273° |
| 2026-04-29 12:16 | -5.61337 | 131.77697 | 33929 ft | 465 kts | 273° |
| 2026-04-29 12:17 | -5.61082 | 131.71204 | 33932 ft | 466 kts | 273° |
| 2026-04-29 12:17 | -5.60823 | 131.64704 | 33934 ft | 466 kts | 273° |
| 2026-04-29 12:18 | -5.60564 | 131.58246 | 33944 ft | 466 kts | 273° |
| 2026-04-29 12:18 | -5.60298 | 131.51737 | 33952 ft | 466 kts | 273° |
| 2026-04-29 12:19 | -5.60034 | 131.45235 | 33944 ft | 466 kts | 273° |
| 2026-04-29 12:19 | -5.59777 | 131.38738 | 33946 ft | 466 kts | 273° |
| 2026-04-29 12:20 | -5.59514 | 131.32280 | 33945 ft | 466 kts | 273° |
| 2026-04-29 12:20 | -5.59253 | 131.25779 | 33936 ft | 466 kts | 273° |
| 2026-04-29 12:21 | -5.58989 | 131.19282 | 33932 ft | 466 kts | 273° |
| 2026-04-29 12:21 | -5.58722 | 131.12788 | 33931 ft | 466 kts | 273° |
| 2026-04-29 12:22 | -5.58448 | 131.06297 | 33929 ft | 465 kts | 273° |
| 2026-04-29 12:22 | -5.58189 | 130.99852 | 33928 ft | 465 kts | 273° |
| 2026-04-29 12:23 | -5.57918 | 130.93360 | 33927 ft | 466 kts | 273° |
| 2026-04-29 12:23 | -5.57654 | 130.86862 | 33929 ft | 466 kts | 273° |
| 2026-04-29 12:24 | -5.57395 | 130.80399 | 33934 ft | 467 kts | 273° |
| 2026-04-29 12:24 | -5.57123 | 130.73892 | 33934 ft | 466 kts | 273° |
| 2026-04-29 12:25 | -5.56843 | 130.67386 | 33936 ft | 466 kts | 273° |
| 2026-04-29 12:26 | -5.56442 | 130.57628 | 33937 ft | 467 kts | 273° |
| 2026-04-29 12:26 | -5.56171 | 130.51118 | 33941 ft | 467 kts | 273° |
| 2026-04-29 12:27 | -5.55893 | 130.44647 | 33948 ft | 467 kts | 273° |
| 2026-04-29 12:27 | -5.55622 | 130.38127 | 33951 ft | 467 kts | 273° |
| 2026-04-29 12:28 | -5.55352 | 130.31611 | 33944 ft | 467 kts | 273° |
| 2026-04-29 12:28 | -5.55084 | 130.25141 | 33942 ft | 467 kts | 273° |
| 2026-04-29 12:29 | -5.54804 | 130.18629 | 33938 ft | 467 kts | 274° |
| 2026-04-29 12:29 | -5.54520 | 130.12120 | 33935 ft | 467 kts | 274° |
| 2026-04-29 12:30 | -5.54237 | 130.05618 | 33931 ft | 466 kts | 273° |
| 2026-04-29 12:30 | -5.53964 | 129.99117 | 33926 ft | 466 kts | 273° |
| 2026-04-29 12:31 | -5.53699 | 129.92661 | 33926 ft | 466 kts | 273° |
| 2026-04-29 12:31 | -5.53423 | 129.86158 | 33928 ft | 466 kts | 274° |
| 2026-04-29 12:32 | -5.53139 | 129.79655 | 33928 ft | 466 kts | 274° |
| 2026-04-29 12:32 | -5.52855 | 129.73154 | 33927 ft | 466 kts | 274° |
| 2026-04-29 12:33 | -5.52574 | 129.66695 | 33927 ft | 466 kts | 273° |
| 2026-04-29 12:33 | -5.52294 | 129.60189 | 33929 ft | 467 kts | 273° |
| 2026-04-29 12:34 | -5.52009 | 129.53678 | 33933 ft | 467 kts | 274° |
| 2026-04-29 12:34 | -5.51722 | 129.47169 | 33933 ft | 467 kts | 274° |
| 2026-04-29 12:35 | -5.51438 | 129.40705 | 33937 ft | 467 kts | 274° |
| 2026-04-29 12:35 | -5.51157 | 129.34196 | 33936 ft | 466 kts | 274° |
| 2026-04-29 12:36 | -5.50870 | 129.27694 | 33936 ft | 466 kts | 274° |
| 2026-04-29 12:36 | -5.50585 | 129.21187 | 33932 ft | 467 kts | 274° |
| 2026-04-29 12:37 | -5.50300 | 129.14726 | 33933 ft | 466 kts | 274° |
| 2026-04-29 12:37 | -5.50010 | 129.08222 | 33934 ft | 466 kts | 274° |
| 2026-04-29 12:38 | -5.49721 | 129.01717 | 33936 ft | 466 kts | 274° |
| 2026-04-29 12:38 | -5.49434 | 128.95209 | 33939 ft | 467 kts | 274° |
| 2026-04-29 12:39 | -5.49147 | 128.88697 | 33944 ft | 467 kts | 274° |
| 2026-04-29 12:39 | -5.48858 | 128.82232 | 33940 ft | 467 kts | 274° |
| 2026-04-29 12:40 | -5.48570 | 128.75730 | 33939 ft | 466 kts | 274° |
| 2026-04-29 12:40 | -5.48276 | 128.69231 | 33935 ft | 466 kts | 274° |
| 2026-04-29 12:41 | -5.47977 | 128.62736 | 33932 ft | 466 kts | 274° |
| 2026-04-29 12:41 | -5.47689 | 128.56285 | 33928 ft | 466 kts | 274° |
| 2026-04-29 12:42 | -5.47395 | 128.49785 | 33931 ft | 466 kts | 274° |
| 2026-04-29 12:42 | -5.47097 | 128.43285 | 33930 ft | 466 kts | 274° |
| 2026-04-29 12:43 | -5.46801 | 128.36785 | 33930 ft | 466 kts | 274° |
| 2026-04-29 12:43 | -5.46505 | 128.30287 | 33926 ft | 466 kts | 274° |
| 2026-04-29 12:44 | -5.46219 | 128.23832 | 33922 ft | 466 kts | 274° |
| 2026-04-29 12:44 | -5.45920 | 128.17332 | 33923 ft | 466 kts | 274° |
| 2026-04-29 12:45 | -5.45619 | 128.10831 | 33917 ft | 466 kts | 274° |
| 2026-04-29 12:45 | -5.45320 | 128.04332 | 33919 ft | 466 kts | 274° |
| 2026-04-29 12:46 | -5.45029 | 127.97876 | 33922 ft | 467 kts | 274° |
| 2026-04-29 12:46 | -5.44730 | 127.91371 | 33927 ft | 466 kts | 274° |
| 2026-04-29 12:47 | -5.44426 | 127.84869 | 33929 ft | 466 kts | 274° |
| 2026-04-29 12:47 | -5.44124 | 127.78365 | 33929 ft | 466 kts | 274° |
| 2026-04-29 12:48 | -5.43823 | 127.71861 | 33932 ft | 467 kts | 274° |
| 2026-04-29 12:48 | -5.43525 | 127.65395 | 33933 ft | 467 kts | 274° |
| 2026-04-29 12:49 | -5.43225 | 127.58889 | 33934 ft | 467 kts | 274° |
| 2026-04-29 12:49 | -5.42914 | 127.52378 | 33935 ft | 467 kts | 274° |
| 2026-04-29 12:50 | -5.42604 | 127.45873 | 33934 ft | 467 kts | 274° |
| 2026-04-29 12:50 | -5.42299 | 127.39411 | 33931 ft | 467 kts | 274° |
| 2026-04-29 12:51 | -5.41988 | 127.32908 | 33931 ft | 467 kts | 274° |
| 2026-04-29 12:51 | -5.41676 | 127.26403 | 33933 ft | 467 kts | 274° |
| 2026-04-29 12:52 | -5.41376 | 127.19895 | 33932 ft | 467 kts | 274° |
| 2026-04-29 12:52 | -5.41076 | 127.13432 | 33929 ft | 467 kts | 274° |
| 2026-04-29 12:53 | -5.40768 | 127.06923 | 33931 ft | 467 kts | 274° |
| 2026-04-29 12:53 | -5.40449 | 127.00411 | 33929 ft | 467 kts | 274° |
| 2026-04-29 12:54 | -5.40136 | 126.93898 | 33928 ft | 467 kts | 274° |
| 2026-04-29 12:54 | -5.39830 | 126.87431 | 33927 ft | 467 kts | 274° |
| 2026-04-29 12:55 | -5.39514 | 126.80915 | 33932 ft | 468 kts | 274° |
| 2026-04-29 12:55 | -5.39196 | 126.74398 | 33931 ft | 467 kts | 274° |
| 2026-04-29 12:56 | -5.38886 | 126.67881 | 33931 ft | 468 kts | 274° |
| 2026-04-29 12:56 | -5.38574 | 126.61403 | 33935 ft | 468 kts | 274° |
| 2026-04-29 12:57 | -5.38259 | 126.54885 | 33944 ft | 468 kts | 274° |
| 2026-04-29 12:57 | -5.37944 | 126.48370 | 33936 ft | 467 kts | 274° |
| 2026-04-29 12:58 | -5.37633 | 126.41855 | 33936 ft | 467 kts | 274° |
| 2026-04-29 12:58 | -5.37311 | 126.35341 | 33935 ft | 467 kts | 274° |
| 2026-04-29 12:59 | -5.36988 | 126.28857 | 33944 ft | 470 kts | 274° |
| 2026-04-29 12:59 | -5.36680 | 126.22334 | 33936 ft | 467 kts | 274° |
| 2026-04-29 13:00 | -5.36358 | 126.15848 | 33933 ft | 466 kts | 274° |
| 2026-04-29 13:00 | -5.36037 | 126.09355 | 33927 ft | 466 kts | 274° |
| 2026-04-29 13:01 | -5.35719 | 126.02901 | 33925 ft | 467 kts | 274° |
| 2026-04-29 13:01 | -5.35393 | 125.96382 | 33929 ft | 468 kts | 274° |
| 2026-04-29 13:02 | -5.35072 | 125.89862 | 33930 ft | 467 kts | 274° |
| 2026-04-29 13:02 | -5.34756 | 125.83348 | 33926 ft | 467 kts | 274° |
| 2026-04-29 13:03 | -5.34430 | 125.76878 | 33924 ft | 468 kts | 274° |
| 2026-04-29 13:03 | -5.34109 | 125.70360 | 33926 ft | 468 kts | 274° |
| 2026-04-29 13:04 | -5.33788 | 125.63842 | 33927 ft | 468 kts | 274° |
| 2026-04-29 13:04 | -5.33453 | 125.57318 | 33930 ft | 468 kts | 274° |
| 2026-04-29 13:05 | -5.33121 | 125.50840 | 33933 ft | 468 kts | 274° |
| 2026-04-29 13:05 | -5.32789 | 125.44320 | 33934 ft | 468 kts | 274° |
| 2026-04-29 13:06 | -5.32473 | 125.37798 | 33930 ft | 468 kts | 274° |
| 2026-04-29 13:06 | -5.32148 | 125.31276 | 33930 ft | 468 kts | 274° |
| 2026-04-29 13:07 | -5.31811 | 125.24759 | 33933 ft | 468 kts | 274° |
| 2026-04-29 13:07 | -5.31479 | 125.18288 | 33925 ft | 468 kts | 274° |
| 2026-04-29 13:08 | -5.31150 | 125.11768 | 33925 ft | 468 kts | 274° |
| 2026-04-29 13:08 | -5.30824 | 125.05245 | 33925 ft | 468 kts | 274° |
| 2026-04-29 13:09 | -5.30488 | 124.98727 | 33929 ft | 468 kts | 274° |
| 2026-04-29 13:09 | -5.30158 | 124.92203 | 33933 ft | 468 kts | 274° |
| 2026-04-29 13:10 | -5.29833 | 124.85723 | 33934 ft | 468 kts | 274° |
| 2026-04-29 13:10 | -5.29503 | 124.79201 | 33933 ft | 468 kts | 274° |
| 2026-04-29 13:11 | -5.29155 | 124.72684 | 33934 ft | 468 kts | 274° |
| 2026-04-29 13:11 | -5.28816 | 124.66162 | 33937 ft | 468 kts | 274° |
| 2026-04-29 13:12 | -5.28483 | 124.59686 | 33950 ft | 468 kts | 274° |
| 2026-04-29 13:12 | -5.28142 | 124.53165 | 33940 ft | 468 kts | 274° |
| 2026-04-29 13:13 | -5.27812 | 124.46653 | 33938 ft | 468 kts | 274° |
| 2026-04-29 13:13 | -5.27473 | 124.40139 | 33936 ft | 467 kts | 274° |
| 2026-04-29 13:14 | -5.27140 | 124.33671 | 33942 ft | 467 kts | 274° |
| 2026-04-29 13:14 | -5.26799 | 124.27153 | 33967 ft | 470 kts | 274° |
| 2026-04-29 13:14 | -5.26623 | 124.23871 | 34106 ft | 472 kts | 274° |
| 2026-04-29 13:15 | -5.26449 | 124.20582 | 34295 ft | 473 kts | 274° |
| 2026-04-29 13:15 | -5.26288 | 124.17288 | 34518 ft | 472 kts | 274° |
| 2026-04-29 13:15 | -5.26143 | 124.13994 | 34744 ft | 472 kts | 274° |
| 2026-04-29 13:15 | -5.26005 | 124.10706 | 34972 ft | 471 kts | 274° |
| 2026-04-29 13:16 | -5.25872 | 124.07470 | 35180 ft | 470 kts | 274° |
| 2026-04-29 13:16 | -5.25734 | 124.04195 | 35381 ft | 470 kts | 274° |
| 2026-04-29 13:16 | -5.25588 | 124.00921 | 35577 ft | 469 kts | 274° |
| 2026-04-29 13:16 | -5.25442 | 123.97656 | 35772 ft | 468 kts | 274° |
| 2026-04-29 13:17 | -5.25292 | 123.94394 | 35921 ft | 468 kts | 274° |
| 2026-04-29 13:17 | -5.24989 | 123.87879 | 35943 ft | 467 kts | 274° |
| 2026-04-29 13:18 | -5.24696 | 123.81371 | 35943 ft | 467 kts | 274° |
| 2026-04-29 13:18 | -5.24406 | 123.74910 | 35943 ft | 467 kts | 274° |
| 2026-04-29 13:19 | -5.24112 | 123.68408 | 35943 ft | 467 kts | 274° |
| 2026-04-29 13:19 | -5.23806 | 123.61902 | 35943 ft | 467 kts | 274° |
| 2026-04-29 13:20 | -5.23509 | 123.55394 | 35946 ft | 467 kts | 274° |
| 2026-04-29 13:20 | -5.23216 | 123.48889 | 35952 ft | 467 kts | 274° |
| 2026-04-29 13:21 | -5.22915 | 123.42428 | 35957 ft | 467 kts | 274° |
| 2026-04-29 13:21 | -5.22613 | 123.35921 | 35959 ft | 467 kts | 274° |
| 2026-04-29 13:22 | -5.22318 | 123.29410 | 35958 ft | 467 kts | 274° |
| 2026-04-29 13:22 | -5.22019 | 123.22901 | 35957 ft | 467 kts | 274° |
| 2026-04-29 13:23 | -5.21717 | 123.16439 | 35958 ft | 467 kts | 274° |
| 2026-04-29 13:23 | -5.21409 | 123.09928 | 35957 ft | 467 kts | 274° |
| 2026-04-29 13:24 | -5.21095 | 123.03408 | 35961 ft | 468 kts | 274° |
| 2026-04-29 13:24 | -5.20790 | 122.96895 | 35963 ft | 467 kts | 274° |
| 2026-04-29 13:25 | -5.20485 | 122.90431 | 35964 ft | 467 kts | 274° |
| 2026-04-29 13:25 | -5.20035 | 122.80670 | 35963 ft | 467 kts | 274° |
| 2026-04-29 13:26 | -5.19731 | 122.74170 | 35961 ft | 467 kts | 274° |
| 2026-04-29 13:26 | -5.19427 | 122.67704 | 35962 ft | 467 kts | 274° |
| 2026-04-29 13:27 | -5.19116 | 122.61195 | 35963 ft | 467 kts | 274° |
| 2026-04-29 13:27 | -5.18803 | 122.54694 | 35964 ft | 466 kts | 274° |
| 2026-04-29 13:28 | -5.18499 | 122.48197 | 35965 ft | 466 kts | 274° |
| 2026-04-29 13:28 | -5.18198 | 122.41747 | 35963 ft | 466 kts | 274° |
| 2026-04-29 13:29 | -5.17893 | 122.35253 | 35963 ft | 466 kts | 274° |
| 2026-04-29 13:29 | -5.17583 | 122.28761 | 35963 ft | 466 kts | 274° |
| 2026-04-29 13:30 | -5.17275 | 122.22269 | 35963 ft | 466 kts | 274° |
| 2026-04-29 13:30 | -5.16963 | 122.15826 | 35962 ft | 466 kts | 274° |
| 2026-04-29 13:31 | -5.16651 | 122.09334 | 35963 ft | 466 kts | 274° |
| 2026-04-29 13:31 | -5.16334 | 122.02843 | 35963 ft | 466 kts | 274° |
| 2026-04-29 13:32 | -5.16016 | 121.96356 | 35962 ft | 465 kts | 274° |
| 2026-04-29 13:32 | -5.15703 | 121.89915 | 35963 ft | 465 kts | 274° |
| 2026-04-29 13:33 | -5.15389 | 121.83435 | 35961 ft | 465 kts | 274° |
| 2026-04-29 13:33 | -5.15076 | 121.76957 | 35961 ft | 465 kts | 274° |
| 2026-04-29 13:34 | -5.14764 | 121.70476 | 35961 ft | 465 kts | 274° |
| 2026-04-29 13:34 | -5.14454 | 121.63991 | 35963 ft | 466 kts | 274° |
| 2026-04-29 13:35 | -5.14138 | 121.57550 | 35964 ft | 465 kts | 274° |
| 2026-04-29 13:35 | -5.13823 | 121.51069 | 35965 ft | 465 kts | 274° |
| 2026-04-29 13:36 | -5.13515 | 121.44589 | 35962 ft | 465 kts | 274° |
| 2026-04-29 13:36 | -5.13199 | 121.38111 | 35962 ft | 465 kts | 274° |
| 2026-04-29 13:37 | -5.12879 | 121.31676 | 35962 ft | 465 kts | 274° |
| 2026-04-29 13:37 | -5.12559 | 121.25200 | 35961 ft | 465 kts | 274° |
| 2026-04-29 13:38 | -5.12229 | 121.18729 | 35958 ft | 465 kts | 274° |
| 2026-04-29 13:38 | -5.11898 | 121.12254 | 35958 ft | 465 kts | 274° |
| 2026-04-29 13:39 | -5.11572 | 121.05820 | 35959 ft | 465 kts | 274° |
| 2026-04-29 13:39 | -5.11251 | 120.99343 | 35960 ft | 465 kts | 274° |
| 2026-04-29 13:40 | -5.10932 | 120.92865 | 35960 ft | 465 kts | 274° |
| 2026-04-29 13:40 | -5.10618 | 120.86392 | 35959 ft | 465 kts | 274° |
| 2026-04-29 13:41 | -5.10300 | 120.79963 | 35960 ft | 465 kts | 274° |
| 2026-04-29 13:41 | -5.09969 | 120.73493 | 35961 ft | 465 kts | 274° |
| 2026-04-29 13:42 | -5.09636 | 120.67019 | 35960 ft | 465 kts | 274° |
| 2026-04-29 13:42 | -5.09316 | 120.60540 | 35958 ft | 465 kts | 274° |
| 2026-04-29 13:43 | -5.09052 | 120.55160 | 35960 ft | 465 kts | 274° |
| 2026-04-29 13:43 | -5.08668 | 120.47633 | 35960 ft | 465 kts | 274° |
| 2026-04-29 13:44 | -5.08344 | 120.41156 | 35961 ft | 465 kts | 274° |
| 2026-04-29 13:44 | -5.08071 | 120.35773 | 35962 ft | 465 kts | 274° |
| 2026-04-29 13:45 | -5.07740 | 120.29296 | 35962 ft | 465 kts | 274° |
| 2026-04-29 13:45 | -5.07350 | 120.21769 | 35962 ft | 465 kts | 274° |
| 2026-04-29 13:46 | -5.07074 | 120.16337 | 35963 ft | 465 kts | 274° |
| 2026-04-29 13:46 | -5.06753 | 120.09903 | 35962 ft | 465 kts | 274° |
| 2026-04-29 13:47 | -5.06423 | 120.03421 | 35960 ft | 465 kts | 274° |
| 2026-04-29 13:47 | -5.06089 | 119.96942 | 35956 ft | 465 kts | 274° |
| 2026-04-29 13:48 | -5.05749 | 119.90466 | 35954 ft | 465 kts | 274° |
| 2026-04-29 13:48 | -5.05408 | 119.84029 | 35954 ft | 465 kts | 274° |
| 2026-04-29 13:49 | -5.05079 | 119.77549 | 35953 ft | 465 kts | 274° |
| 2026-04-29 13:49 | -5.04744 | 119.71069 | 35953 ft | 465 kts | 274° |
| 2026-04-29 13:50 | -5.04408 | 119.64589 | 35952 ft | 465 kts | 274° |
| 2026-04-29 13:50 | -5.04072 | 119.58150 | 35953 ft | 465 kts | 274° |
| 2026-04-29 13:51 | -5.03656 | 119.51674 | 35951 ft | 464 kts | 279° |
| 2026-04-29 13:51 | -5.02709 | 119.45271 | 35951 ft | 464 kts | 279° |
| 2026-04-29 13:52 | -5.01738 | 119.38865 | 35950 ft | 465 kts | 279° |
| 2026-04-29 13:52 | -5.00778 | 119.32457 | 35950 ft | 465 kts | 279° |
| 2026-04-29 13:53 | -4.99833 | 119.26086 | 35950 ft | 465 kts | 279° |
| 2026-04-29 13:53 | -4.98883 | 119.19671 | 35947 ft | 465 kts | 279° |
| 2026-04-29 13:54 | -4.97927 | 119.13252 | 35946 ft | 466 kts | 279° |
| 2026-04-29 13:54 | -4.96968 | 119.06873 | 35948 ft | 466 kts | 279° |
| 2026-04-29 13:55 | -4.96005 | 119.00445 | 35949 ft | 466 kts | 279° |
| 2026-04-29 13:55 | -4.95043 | 118.94023 | 35949 ft | 466 kts | 279° |
| 2026-04-29 13:56 | -4.94084 | 118.87595 | 35948 ft | 467 kts | 279° |
| 2026-04-29 13:56 | -4.93132 | 118.81161 | 35950 ft | 466 kts | 279° |
| 2026-04-29 13:57 | -4.92177 | 118.74771 | 35951 ft | 466 kts | 279° |
| 2026-04-29 13:57 | -4.91215 | 118.68344 | 35950 ft | 466 kts | 279° |
| 2026-04-29 13:58 | -4.90245 | 118.61916 | 35950 ft | 466 kts | 279° |
| 2026-04-29 13:58 | -4.89275 | 118.55485 | 35949 ft | 467 kts | 279° |
| 2026-04-29 13:59 | -4.88312 | 118.49051 | 35945 ft | 466 kts | 279° |
| 2026-04-29 13:59 | -4.87356 | 118.42670 | 35944 ft | 466 kts | 279° |
| 2026-04-29 14:00 | -4.86380 | 118.36234 | 35950 ft | 467 kts | 279° |
| 2026-04-29 14:00 | -4.85415 | 118.29787 | 35956 ft | 467 kts | 279° |
| 2026-04-29 14:01 | -4.84450 | 118.23341 | 35955 ft | 468 kts | 279° |
| 2026-04-29 14:01 | -4.83484 | 118.16936 | 35954 ft | 468 kts | 279° |
| 2026-04-29 14:02 | -4.82525 | 118.10483 | 35954 ft | 468 kts | 279° |
| 2026-04-29 14:02 | -4.81558 | 118.04025 | 35956 ft | 468 kts | 279° |
| 2026-04-29 14:03 | -4.80584 | 117.97572 | 35955 ft | 468 kts | 279° |
| 2026-04-29 14:03 | -4.79606 | 117.91165 | 35952 ft | 468 kts | 279° |
| 2026-04-29 14:04 | -4.78629 | 117.84710 | 35950 ft | 468 kts | 279° |
| 2026-04-29 14:04 | -4.77652 | 117.78246 | 35949 ft | 469 kts | 279° |
| 2026-04-29 14:05 | -4.76673 | 117.71782 | 35950 ft | 469 kts | 279° |
| 2026-04-29 14:05 | -4.75698 | 117.65313 | 35949 ft | 469 kts | 279° |
| 2026-04-29 14:06 | -4.74724 | 117.58893 | 35939 ft | 469 kts | 279° |
| 2026-04-29 14:06 | -4.73741 | 117.52428 | 35938 ft | 469 kts | 279° |
| 2026-04-29 14:07 | -4.72762 | 117.45961 | 35940 ft | 469 kts | 279° |
| 2026-04-29 14:07 | -4.71784 | 117.39488 | 35945 ft | 470 kts | 279° |
| 2026-04-29 14:08 | -4.70809 | 117.33054 | 35947 ft | 470 kts | 279° |
| 2026-04-29 14:08 | -4.69827 | 117.26579 | 35946 ft | 469 kts | 279° |
| 2026-04-29 14:09 | -4.68841 | 117.20116 | 35940 ft | 469 kts | 279° |
| 2026-04-29 14:09 | -4.67854 | 117.13653 | 35937 ft | 469 kts | 279° |
| 2026-04-29 14:10 | -4.66877 | 117.07188 | 35934 ft | 469 kts | 279° |
| 2026-04-29 14:10 | -4.65897 | 117.00767 | 35934 ft | 469 kts | 279° |
| 2026-04-29 14:11 | -4.64905 | 116.94307 | 35935 ft | 469 kts | 279° |
| 2026-04-29 14:11 | -4.63919 | 116.87846 | 35933 ft | 469 kts | 279° |
| 2026-04-29 14:12 | -4.62925 | 116.81383 | 35926 ft | 469 kts | 279° |
| 2026-04-29 14:12 | -4.61945 | 116.74960 | 35921 ft | 471 kts | 279° |
| 2026-04-29 14:13 | -4.60952 | 116.68465 | 35934 ft | 471 kts | 279° |
| 2026-04-29 14:13 | -4.59965 | 116.61973 | 35933 ft | 471 kts | 279° |
| 2026-04-29 14:14 | -4.58974 | 116.55491 | 35930 ft | 470 kts | 279° |
| 2026-04-29 14:14 | -4.57983 | 116.49014 | 35928 ft | 470 kts | 280° |
| 2026-04-29 14:15 | -4.56995 | 116.42581 | 35932 ft | 470 kts | 280° |
| 2026-04-29 14:15 | -4.56005 | 116.36106 | 35923 ft | 470 kts | 279° |
| 2026-04-29 14:16 | -4.55011 | 116.29631 | 35921 ft | 470 kts | 280° |
| 2026-04-29 14:16 | -4.54013 | 116.23158 | 35920 ft | 470 kts | 280° |
| 2026-04-29 14:17 | -4.53020 | 116.16684 | 35913 ft | 470 kts | 280° |
| 2026-04-29 14:17 | -4.52041 | 116.10249 | 35913 ft | 470 kts | 280° |
| 2026-04-29 14:18 | -4.51044 | 116.03773 | 35914 ft | 470 kts | 280° |
| 2026-04-29 14:18 | -4.50042 | 115.97291 | 35914 ft | 471 kts | 280° |
| 2026-04-29 14:19 | -4.49037 | 115.90813 | 35916 ft | 470 kts | 280° |
| 2026-04-29 14:19 | -4.48050 | 115.84378 | 35914 ft | 470 kts | 280° |
| 2026-04-29 14:20 | -4.47057 | 115.77895 | 35910 ft | 470 kts | 280° |
| 2026-04-29 14:20 | -4.46060 | 115.71421 | 35908 ft | 470 kts | 280° |
| 2026-04-29 14:21 | -4.45064 | 115.64943 | 35906 ft | 470 kts | 279° |
| 2026-04-29 14:21 | -4.44072 | 115.58513 | 35906 ft | 470 kts | 280° |
| 2026-04-29 14:22 | -4.43062 | 115.52048 | 35905 ft | 469 kts | 280° |
| 2026-04-29 14:22 | -4.42061 | 115.45586 | 35904 ft | 469 kts | 280° |
| 2026-04-29 14:23 | -4.41060 | 115.39119 | 35905 ft | 469 kts | 280° |
| 2026-04-29 14:23 | -4.40067 | 115.32697 | 35905 ft | 470 kts | 280° |
| 2026-04-29 14:24 | -4.39073 | 115.26230 | 35904 ft | 470 kts | 279° |
| 2026-04-29 14:24 | -4.38078 | 115.19763 | 35903 ft | 470 kts | 279° |
| 2026-04-29 14:25 | -4.37066 | 115.13302 | 35905 ft | 469 kts | 280° |
| 2026-04-29 14:25 | -4.36065 | 115.06887 | 35905 ft | 469 kts | 279° |
| 2026-04-29 14:26 | -4.35069 | 115.00421 | 35905 ft | 469 kts | 279° |
| 2026-04-29 14:26 | -4.33796 | 114.94021 | 35905 ft | 468 kts | 290° |
| 2026-04-29 14:27 | -4.31107 | 114.88109 | 35907 ft | 466 kts | 297° |
| 2026-04-29 14:28 | -4.26818 | 114.79411 | 35905 ft | 467 kts | 297° |
| 2026-04-29 14:28 | -4.23949 | 114.73577 | 35905 ft | 467 kts | 297° |
| 2026-04-29 14:29 | -4.21077 | 114.67743 | 35907 ft | 467 kts | 297° |
| 2026-04-29 14:29 | -4.18202 | 114.61910 | 35907 ft | 467 kts | 297° |
| 2026-04-29 14:30 | -4.15357 | 114.56119 | 35905 ft | 467 kts | 297° |
| 2026-04-29 14:30 | -4.12489 | 114.50287 | 35905 ft | 467 kts | 297° |
| 2026-04-29 14:31 | -4.09614 | 114.44454 | 35904 ft | 467 kts | 297° |
| 2026-04-29 14:31 | -4.06734 | 114.38624 | 35903 ft | 467 kts | 297° |
| 2026-04-29 14:32 | -4.03860 | 114.32786 | 35903 ft | 467 kts | 297° |
| 2026-04-29 14:32 | -4.01007 | 114.26988 | 35904 ft | 467 kts | 297° |
| 2026-04-29 14:33 | -3.98128 | 114.21147 | 35903 ft | 468 kts | 297° |
| 2026-04-29 14:33 | -3.95248 | 114.15312 | 35902 ft | 468 kts | 297° |
| 2026-04-29 14:34 | -3.92371 | 114.09468 | 35903 ft | 468 kts | 297° |
| 2026-04-29 14:34 | -3.89515 | 114.03667 | 35906 ft | 468 kts | 297° |
| 2026-04-29 14:35 | -3.86631 | 113.97826 | 35907 ft | 468 kts | 297° |
| 2026-04-29 14:35 | -3.83749 | 113.91989 | 35907 ft | 468 kts | 297° |
| 2026-04-29 14:36 | -3.80877 | 113.86145 | 35905 ft | 467 kts | 297° |
| 2026-04-29 14:36 | -3.78005 | 113.80310 | 35905 ft | 467 kts | 297° |
| 2026-04-29 14:37 | -3.75136 | 113.74519 | 35904 ft | 467 kts | 297° |
| 2026-04-29 14:37 | -3.72251 | 113.68683 | 35905 ft | 468 kts | 297° |
| 2026-04-29 14:38 | -3.69374 | 113.62848 | 35905 ft | 467 kts | 297° |
| 2026-04-29 14:38 | -3.66495 | 113.57015 | 35905 ft | 467 kts | 297° |
| 2026-04-29 14:39 | -3.63632 | 113.51221 | 35906 ft | 467 kts | 297° |
| 2026-04-29 14:39 | -3.60749 | 113.45388 | 35906 ft | 467 kts | 297° |
| 2026-04-29 14:40 | -3.57862 | 113.39560 | 35906 ft | 467 kts | 297° |
| 2026-04-29 14:40 | -3.54981 | 113.33725 | 35906 ft | 467 kts | 297° |
| 2026-04-29 14:41 | -3.52127 | 113.27930 | 35908 ft | 467 kts | 297° |
| 2026-04-29 14:41 | -3.49240 | 113.22100 | 35908 ft | 467 kts | 297° |
| 2026-04-29 14:42 | -3.46358 | 113.16272 | 35909 ft | 467 kts | 297° |
| 2026-04-29 14:42 | -3.43469 | 113.10452 | 35910 ft | 467 kts | 297° |
| 2026-04-29 14:43 | -3.40589 | 113.04628 | 35909 ft | 467 kts | 297° |
| 2026-04-29 14:43 | -3.37735 | 112.98842 | 35908 ft | 467 kts | 297° |
| 2026-04-29 14:44 | -3.34856 | 112.93020 | 35906 ft | 467 kts | 297° |
| 2026-04-29 14:44 | -3.31967 | 112.87198 | 35907 ft | 467 kts | 297° |
| 2026-04-29 14:45 | -3.29077 | 112.81381 | 35909 ft | 467 kts | 297° |
| 2026-04-29 14:45 | -3.26193 | 112.75556 | 35908 ft | 467 kts | 297° |
| 2026-04-29 14:46 | -3.23333 | 112.69768 | 35910 ft | 467 kts | 297° |
| 2026-04-29 14:46 | -3.20448 | 112.63944 | 35912 ft | 467 kts | 297° |
| 2026-04-29 14:47 | -3.17559 | 112.58124 | 35909 ft | 467 kts | 297° |
| 2026-04-29 14:47 | -3.14671 | 112.52304 | 35909 ft | 467 kts | 297° |
| 2026-04-29 14:48 | -3.11808 | 112.46523 | 35911 ft | 467 kts | 297° |
| 2026-04-29 14:48 | -3.08924 | 112.40703 | 35914 ft | 467 kts | 297° |
| 2026-04-29 14:49 | -3.06036 | 112.34886 | 35915 ft | 467 kts | 297° |
| 2026-04-29 14:49 | -3.03160 | 112.29107 | 35915 ft | 467 kts | 297° |
| 2026-04-29 14:50 | -3.00188 | 112.23337 | 35916 ft | 467 kts | 298° |
| 2026-04-29 14:50 | -2.97160 | 112.17595 | 35918 ft | 466 kts | 298° |
| 2026-04-29 14:51 | -2.94149 | 112.11849 | 35914 ft | 467 kts | 298° |
| 2026-04-29 14:51 | -2.91162 | 112.06084 | 35916 ft | 467 kts | 298° |
| 2026-04-29 14:52 | -2.88208 | 112.00352 | 35918 ft | 467 kts | 298° |
| 2026-04-29 14:52 | -2.85226 | 111.94582 | 35915 ft | 467 kts | 298° |
| 2026-04-29 14:53 | -2.82240 | 111.88819 | 35919 ft | 467 kts | 298° |
| 2026-04-29 14:53 | -2.79249 | 111.83053 | 35915 ft | 467 kts | 298° |
| 2026-04-29 14:54 | -2.76262 | 111.77293 | 35915 ft | 467 kts | 298° |
| 2026-04-29 14:54 | -2.73292 | 111.71569 | 35915 ft | 467 kts | 298° |
| 2026-04-29 14:55 | -2.70031 | 111.65967 | 35913 ft | 466 kts | 304° |
| 2026-04-29 14:55 | -2.66472 | 111.60551 | 35913 ft | 466 kts | 304° |
| 2026-04-29 14:56 | -2.62904 | 111.55137 | 35915 ft | 466 kts | 304° |
| 2026-04-29 14:56 | -2.59371 | 111.49750 | 35916 ft | 466 kts | 304° |
| 2026-04-29 14:57 | -2.55826 | 111.44320 | 35916 ft | 466 kts | 304° |
| 2026-04-29 14:57 | -2.52279 | 111.38890 | 35916 ft | 467 kts | 304° |
| 2026-04-29 14:58 | -2.48731 | 111.33456 | 35915 ft | 466 kts | 304° |
| 2026-04-29 14:58 | -2.45201 | 111.28067 | 35915 ft | 466 kts | 304° |
| 2026-04-29 14:59 | -2.41640 | 111.22648 | 35920 ft | 466 kts | 304° |
| 2026-04-29 14:59 | -2.38083 | 111.17225 | 35915 ft | 466 kts | 304° |
| 2026-04-29 15:00 | -2.34528 | 111.11797 | 35917 ft | 467 kts | 304° |
| 2026-04-29 15:00 | -2.31005 | 111.06400 | 35917 ft | 467 kts | 304° |
| 2026-04-29 15:01 | -2.27449 | 111.00970 | 35917 ft | 467 kts | 304° |
| 2026-04-29 15:01 | -2.23888 | 110.95547 | 35904 ft | 467 kts | 304° |
| 2026-04-29 15:02 | -2.20320 | 110.90108 | 35914 ft | 467 kts | 304° |
| 2026-04-29 15:02 | -2.16739 | 110.84670 | 35921 ft | 469 kts | 304° |
| 2026-04-29 15:03 | -2.13162 | 110.79272 | 35925 ft | 468 kts | 304° |
| 2026-04-29 15:03 | -2.09577 | 110.73846 | 35925 ft | 468 kts | 304° |
| 2026-04-29 15:04 | -2.06003 | 110.68416 | 35922 ft | 467 kts | 304° |
| 2026-04-29 15:04 | -2.02435 | 110.62994 | 35921 ft | 467 kts | 304° |
| 2026-04-29 15:05 | -1.98882 | 110.57602 | 35918 ft | 467 kts | 304° |
| 2026-04-29 15:05 | -1.95312 | 110.52188 | 35923 ft | 466 kts | 304° |
| 2026-04-29 15:06 | -1.91741 | 110.46781 | 35926 ft | 466 kts | 304° |
| 2026-04-29 15:06 | -1.88190 | 110.41409 | 35932 ft | 467 kts | 304° |
| 2026-04-29 15:07 | -1.84615 | 110.35983 | 35934 ft | 467 kts | 304° |
| 2026-04-29 15:07 | -1.81046 | 110.30562 | 35930 ft | 467 kts | 304° |
| 2026-04-29 15:08 | -1.77481 | 110.25161 | 35918 ft | 465 kts | 304° |
| 2026-04-29 15:08 | -1.73919 | 110.19770 | 35916 ft | 465 kts | 304° |
| 2026-04-29 15:09 | -1.70387 | 110.14405 | 35917 ft | 465 kts | 304° |
| 2026-04-29 15:09 | -1.66825 | 110.08996 | 35923 ft | 466 kts | 304° |
| 2026-04-29 15:10 | -1.63259 | 110.03588 | 35920 ft | 466 kts | 304° |
| 2026-04-29 15:10 | -1.59687 | 109.98176 | 35925 ft | 466 kts | 304° |
| 2026-04-29 15:11 | -1.56141 | 109.92801 | 35926 ft | 466 kts | 304° |
| 2026-04-29 15:11 | -1.52566 | 109.87396 | 35926 ft | 466 kts | 304° |
| 2026-04-29 15:12 | -1.48996 | 109.81988 | 35926 ft | 466 kts | 304° |
| 2026-04-29 15:12 | -1.45428 | 109.76578 | 35926 ft | 466 kts | 304° |
| 2026-04-29 15:13 | -1.41887 | 109.71206 | 35924 ft | 466 kts | 304° |
| 2026-04-29 15:13 | -1.38323 | 109.65796 | 35924 ft | 466 kts | 304° |
| 2026-04-29 15:14 | -1.34754 | 109.60386 | 35925 ft | 466 kts | 304° |
| 2026-04-29 15:14 | -1.31185 | 109.54979 | 35924 ft | 466 kts | 304° |
| 2026-04-29 15:15 | -1.27631 | 109.49609 | 35925 ft | 466 kts | 304° |
| 2026-04-29 15:15 | -1.24056 | 109.44195 | 35924 ft | 467 kts | 304° |
| 2026-04-29 15:16 | -1.20487 | 109.38770 | 35927 ft | 467 kts | 304° |
| 2026-04-29 15:16 | -1.16918 | 109.33349 | 35928 ft | 467 kts | 304° |
| 2026-04-29 15:17 | -1.13368 | 109.27969 | 35929 ft | 467 kts | 304° |
| 2026-04-29 15:17 | -1.09794 | 109.22554 | 35930 ft | 467 kts | 304° |
| 2026-04-29 15:18 | -1.06218 | 109.17139 | 35930 ft | 467 kts | 304° |
| 2026-04-29 15:18 | -1.02638 | 109.11721 | 35935 ft | 467 kts | 304° |
| 2026-04-29 15:19 | -0.99060 | 109.06299 | 35933 ft | 467 kts | 304° |
| 2026-04-29 15:19 | -0.95517 | 109.00903 | 35933 ft | 468 kts | 304° |
| 2026-04-29 15:20 | -0.91952 | 108.95468 | 35936 ft | 468 kts | 304° |
| 2026-04-29 15:20 | -0.88382 | 108.90030 | 35938 ft | 468 kts | 304° |
| 2026-04-29 15:21 | -0.84814 | 108.84595 | 35941 ft | 467 kts | 304° |
| 2026-04-29 15:21 | -0.81287 | 108.79194 | 35941 ft | 467 kts | 303° |
| 2026-04-29 15:22 | -0.77734 | 108.73766 | 35939 ft | 467 kts | 304° |
| 2026-04-29 15:22 | -0.74180 | 108.68342 | 35936 ft | 467 kts | 304° |
| 2026-04-29 15:23 | -0.70623 | 108.62912 | 35937 ft | 467 kts | 304° |
| 2026-04-29 15:23 | -0.67096 | 108.57517 | 35937 ft | 467 kts | 304° |
| 2026-04-29 15:24 | -0.63547 | 108.52089 | 35936 ft | 467 kts | 304° |
| 2026-04-29 15:24 | -0.59985 | 108.46671 | 35936 ft | 467 kts | 304° |
| 2026-04-29 15:25 | -0.56412 | 108.41260 | 35934 ft | 466 kts | 304° |
| 2026-04-29 15:25 | -0.52864 | 108.35887 | 35933 ft | 466 kts | 304° |
| 2026-04-29 15:26 | -0.49294 | 108.30476 | 35933 ft | 467 kts | 304° |
| 2026-04-29 15:26 | -0.45727 | 108.25061 | 35934 ft | 467 kts | 304° |
| 2026-04-29 15:27 | -0.42159 | 108.19642 | 35936 ft | 467 kts | 304° |
| 2026-04-29 15:27 | -0.38617 | 108.14258 | 35932 ft | 467 kts | 304° |
| 2026-04-29 15:28 | -0.35043 | 108.08843 | 35935 ft | 467 kts | 304° |
| 2026-04-29 15:28 | -0.31471 | 108.03430 | 35939 ft | 466 kts | 304° |
| 2026-04-29 15:29 | -0.27917 | 107.98014 | 35940 ft | 466 kts | 304° |
| 2026-04-29 15:30 | -0.20827 | 107.87231 | 35939 ft | 466 kts | 304° |
| 2026-04-29 15:30 | -0.17261 | 107.81829 | 35937 ft | 466 kts | 304° |
| 2026-04-29 15:31 | -0.13696 | 107.76429 | 35937 ft | 466 kts | 304° |
| 2026-04-29 15:31 | -0.10153 | 107.71065 | 35937 ft | 466 kts | 304° |
| 2026-04-29 15:32 | -0.06571 | 107.65676 | 35937 ft | 466 kts | 304° |
| 2026-04-29 15:32 | -0.02973 | 107.60299 | 35922 ft | 465 kts | 304° |
| 2026-04-29 15:33 | 0.00610 | 107.54912 | 35928 ft | 465 kts | 304° |
| 2026-04-29 15:33 | 0.04161 | 107.49560 | 35932 ft | 465 kts | 304° |
| 2026-04-29 15:34 | 0.07740 | 107.44180 | 35935 ft | 465 kts | 304° |
| 2026-04-29 15:34 | 0.11315 | 107.38799 | 35937 ft | 465 kts | 304° |
| 2026-04-29 15:35 | 0.14895 | 107.33416 | 35941 ft | 465 kts | 304° |
| 2026-04-29 15:35 | 0.18450 | 107.28076 | 35940 ft | 464 kts | 304° |
| 2026-04-29 15:36 | 0.22026 | 107.22706 | 35942 ft | 464 kts | 304° |
| 2026-04-29 15:36 | 0.25601 | 107.17335 | 35942 ft | 464 kts | 304° |
| 2026-04-29 15:37 | 0.29168 | 107.11968 | 35941 ft | 463 kts | 304° |
| 2026-04-29 15:37 | 0.32709 | 107.06644 | 35940 ft | 463 kts | 304° |
| 2026-04-29 15:38 | 0.36272 | 107.01290 | 35940 ft | 462 kts | 304° |
| 2026-04-29 15:38 | 0.39809 | 106.95921 | 35937 ft | 463 kts | 300° |
| 2026-04-29 15:39 | 0.42132 | 106.89958 | 35936 ft | 462 kts | 281° |
| 2026-04-29 15:39 | 0.43085 | 106.83655 | 35938 ft | 462 kts | 278° |
| 2026-04-29 15:40 | 0.44008 | 106.77301 | 35940 ft | 462 kts | 278° |
| 2026-04-29 15:40 | 0.44933 | 106.70949 | 35940 ft | 462 kts | 278° |
| 2026-04-29 15:41 | 0.45848 | 106.64606 | 35933 ft | 461 kts | 278° |
| 2026-04-29 15:41 | 0.46756 | 106.58304 | 35934 ft | 461 kts | 278° |
| 2026-04-29 15:42 | 0.47670 | 106.51960 | 35936 ft | 461 kts | 278° |
| 2026-04-29 15:42 | 0.48584 | 106.45630 | 35936 ft | 460 kts | 278° |
| 2026-04-29 15:43 | 0.49493 | 106.39300 | 35932 ft | 460 kts | 278° |
| 2026-04-29 15:43 | 0.50390 | 106.33003 | 35937 ft | 462 kts | 278° |
| 2026-04-29 15:44 | 0.51307 | 106.26653 | 35937 ft | 461 kts | 278° |
| 2026-04-29 15:44 | 0.52237 | 106.20312 | 35942 ft | 461 kts | 278° |
| 2026-04-29 15:45 | 0.53158 | 106.13975 | 35942 ft | 461 kts | 278° |
| 2026-04-29 15:45 | 0.54068 | 106.07642 | 35942 ft | 460 kts | 278° |